Open Full Screen Window  High Contrast Mode
Wind Gusting 00 knots
04
July 20, 2018 4:48 AM EDT
Weather Information
Wind Direction
  170 °
Wind Speed
  04 kt (5 mph)
Wind Gust
  00 kt (0 mph)
Altimeter
29.92 in
Visibility
10 SM
Temperature
20° C
68° F
Dewpoint
16° C
61° F
Humidity
78%
1hr Rain Fall
00.00 in.
24hr Rain Fall
00.00 in.
Sky Condition
Broken @ 10,000 ft
VFR

METAR KI19 200848Z AUTO 17004KT 10SM BKN100 20/16 A2992 RMK AO2 T01970160

FAA Disclaimer: The data displayed is for advisory purposes only and is not to be used for flight planning or operations.